createdAt,value
2023-05-10T00:02:07.075Z,101308.97
2023-05-10T00:05:10.684Z,101300.09
2023-05-10T00:08:13.463Z,101299.19
2023-05-10T00:11:16.203Z,101303.66
2023-05-10T00:14:19.302Z,101307.22
2023-05-10T00:17:23.450Z,101300.19
2023-05-10T00:20:26.228Z,101297.50
2023-05-10T00:23:29.030Z,101295.72
2023-05-10T00:26:31.825Z,101290.38
2023-05-10T00:29:34.838Z,101296.72
2023-05-10T00:32:39.098Z,101287.84
2023-05-10T00:35:42.010Z,101286.16
2023-05-10T00:38:45.673Z,101281.78
2023-05-10T00:41:48.417Z,101282.72
2023-05-10T00:44:52.152Z,101276.47
2023-05-10T00:47:57.049Z,101270.97
2023-05-10T00:51:00.015Z,101269.06
2023-05-10T00:54:02.839Z,101266.31
2023-05-10T00:57:06.108Z,101266.22
2023-05-10T01:00:10.740Z,101264.41
2023-05-10T01:03:15.385Z,101259.16
2023-05-10T01:06:18.218Z,101257.44
2023-05-10T01:09:22.114Z,101261.88
2023-05-10T01:12:25.071Z,101254.78
2023-05-10T01:15:28.901Z,101249.53
2023-05-10T01:18:35.188Z,101253.06
2023-05-10T01:21:45.082Z,101245.91
2023-05-10T01:25:24.087Z,101251.41
2023-05-10T01:28:49.331Z,101242.53
2023-05-10T01:32:12.070Z,101240.81
2023-05-10T01:35:20.248Z,101242.69
2023-05-10T01:38:31.671Z,101236.47
2023-05-10T01:41:43.034Z,101229.41
2023-05-10T01:44:56.198Z,101220.59
2023-05-10T01:48:08.275Z,101225.13
2023-05-10T01:51:12.752Z,101217.13
2023-05-10T01:54:17.624Z,101216.22
2023-05-10T01:57:22.296Z,101219.69
2023-05-10T02:00:26.305Z,101217.03
2023-05-10T02:03:32.143Z,101218.88
2023-05-10T02:06:36.181Z,101222.47
2023-05-10T02:09:40.129Z,101221.59
2023-05-10T02:12:45.257Z,101215.28
2023-05-10T02:15:50.151Z,101217.03
2023-05-10T02:18:55.725Z,101212.56
2023-05-10T02:22:01.412Z,101208.03
2023-05-10T02:25:06.157Z,101204.47
2023-05-10T02:28:10.067Z,101200.22
2023-05-10T02:31:13.546Z,101205.69
2023-05-10T02:34:17.801Z,101206.75
2023-05-10T02:37:23.474Z,101209.50
2023-05-10T02:40:28.871Z,101202.41
2023-05-10T02:43:35.339Z,101206.88
2023-05-10T02:46:38.871Z,101206.88
2023-05-10T02:49:43.318Z,101205.16
2023-05-10T02:52:49.025Z,101200.72
2023-05-10T02:55:54.848Z,101201.53
2023-05-10T02:58:57.714Z,101195.38
2023-05-10T03:02:01.115Z,101197.09
2023-05-10T03:05:05.697Z,101193.56
2023-05-10T03:08:08.890Z,101196.22
2023-05-10T03:11:34.082Z,101192.72
2023-05-10T03:14:51.053Z,101200.72
2023-05-10T03:17:59.023Z,101191.84
2023-05-10T03:21:07.248Z,101190.88
2023-05-10T03:24:13.309Z,101191.84
2023-05-10T03:27:17.520Z,101192.63
2023-05-10T03:30:21.432Z,101197.97
2023-05-10T03:33:24.345Z,101189.97
2023-05-10T03:36:28.757Z,101196.16
2023-05-10T03:39:32.366Z,101191.72
2023-05-10T03:42:37.129Z,101189.06
2023-05-10T03:45:39.885Z,101190.84
2023-05-10T03:48:42.647Z,101188.19
2023-05-10T03:51:46.925Z,101194.38
2023-05-10T03:54:49.730Z,101189.06
2023-05-10T03:57:54.674Z,101189.06
2023-05-10T04:00:59.034Z,101182.84
2023-05-10T04:04:01.824Z,101190.84
2023-05-10T04:07:08.932Z,101186.38
2023-05-10T04:10:12.007Z,101190.75
2023-05-10T04:13:14.746Z,101193.44
2023-05-10T04:16:17.629Z,101195.22
2023-05-10T04:19:20.441Z,101187.22
2023-05-10T04:22:24.576Z,101183.72
2023-05-10T04:25:27.382Z,101188.19
2023-05-10T04:28:30.505Z,101187.31
2023-05-10T04:31:33.393Z,101173.97
2023-05-10T04:34:36.153Z,101177.56
2023-05-10T04:37:40.316Z,101180.22
2023-05-10T04:40:43.044Z,101179.38
2023-05-10T04:43:45.818Z,101180.22
2023-05-10T04:46:48.627Z,101179.31
2023-05-10T04:49:51.389Z,101184.63
2023-05-10T04:52:55.517Z,101172.22
2023-05-10T04:55:58.251Z,101176.66
2023-05-10T04:59:01.040Z,101174.91
2023-05-10T05:02:04.504Z,101166.06
2023-05-10T05:05:08.366Z,101171.38
2023-05-10T05:08:12.528Z,101173.19
2023-05-10T05:11:15.355Z,101178.50
2023-05-10T05:14:18.145Z,101170.50
2023-05-10T05:17:20.891Z,101180.38
2023-05-10T05:20:23.748Z,101181.19
2023-05-10T05:23:27.891Z,101173.19
2023-05-10T05:26:30.756Z,101169.56
2023-05-10T05:29:33.508Z,101173.09
2023-05-10T05:32:36.338Z,101158.06
2023-05-10T05:35:39.512Z,101171.38
2023-05-10T05:38:43.999Z,101164.22
2023-05-10T05:41:47.173Z,101170.44
2023-05-10T05:44:49.944Z,101164.22
2023-05-10T05:47:52.755Z,101169.56
2023-05-10T05:50:57.562Z,101153.56
2023-05-10T05:54:01.653Z,101174.91
2023-05-10T05:57:04.536Z,101161.56
2023-05-10T06:00:08.701Z,101169.56
2023-05-10T06:03:17.090Z,101169.56
2023-05-10T06:06:19.842Z,101171.31
2023-05-10T06:09:25.515Z,101165.97
2023-05-10T06:12:28.278Z,101173.06
2023-05-10T06:15:31.034Z,101164.13
2023-05-10T06:18:34.102Z,101165.06
2023-05-10T06:21:37.016Z,101163.25
2023-05-10T06:24:41.169Z,101158.78
2023-05-10T06:27:45.143Z,101159.72
2023-05-10T06:30:50.057Z,101167.72
2023-05-10T06:33:55.341Z,101169.44
2023-05-10T06:36:59.476Z,101164.13
2023-05-10T06:40:03.607Z,101161.38
2023-05-10T06:43:06.597Z,101171.13
2023-05-10T06:46:09.606Z,101158.66
2023-05-10T06:49:12.421Z,101146.25
2023-05-10T06:52:15.156Z,101161.31
2023-05-10T06:55:19.569Z,101149.72
2023-05-10T06:58:22.344Z,101151.44
2023-05-10T07:01:25.448Z,101155.84
2023-05-10T07:04:28.717Z,101141.59
2023-05-10T07:07:31.531Z,101138.06
2023-05-10T07:10:35.824Z,101144.25
2023-05-10T07:13:40.070Z,101148.63
2023-05-10T07:16:43.214Z,101140.59
2023-05-10T07:19:46.120Z,101136.09
2023-05-10T07:22:48.857Z,101140.50
2023-05-10T07:25:54.353Z,101127.97
2023-05-10T07:28:57.098Z,101134.19
2023-05-10T07:31:59.883Z,101142.97
2023-05-10T07:35:02.718Z,101133.16
2023-05-10T07:38:05.558Z,101133.16
2023-05-10T07:41:09.780Z,101122.47
2023-05-10T07:44:12.544Z,101132.22
2023-05-10T07:47:15.370Z,101131.28
2023-05-10T07:50:18.433Z,101124.22
2023-05-10T07:53:21.746Z,101120.59
2023-05-10T07:56:28.301Z,101128.56
2023-05-10T07:59:31.114Z,101110.81
2023-05-10T08:02:34.986Z,101123.19
2023-05-10T08:05:37.778Z,101109.84
2023-05-10T08:08:40.593Z,101114.25
2023-05-10T08:11:44.715Z,101123.97
2023-05-10T08:14:47.428Z,101115.88
2023-05-10T08:17:50.227Z,101104.38
2023-05-10T08:20:53.029Z,101118.56
2023-05-10T08:23:55.831Z,101094.56
2023-05-10T08:26:59.946Z,101112.38
2023-05-10T08:30:02.750Z,101112.31
2023-05-10T08:33:06.060Z,101131.88
2023-05-10T08:36:09.069Z,101116.75
2023-05-10T08:39:23.006Z,101129.16
2023-05-10T08:42:38.788Z,101109.56
2023-05-10T08:45:43.075Z,101113.09
2023-05-10T08:48:46.788Z,101102.34
2023-05-10T08:51:53.728Z,101096.09
2023-05-10T08:54:56.640Z,101099.56
2023-05-10T08:58:01.252Z,101111.13
2023-05-10T09:01:04.683Z,101103.09
2023-05-10T09:04:07.585Z,101098.59
2023-05-10T09:07:10.506Z,101108.34
2023-05-10T09:10:15.205Z,101107.47
2023-05-10T09:13:20.702Z,101110.13
2023-05-10T09:16:24.359Z,101104.81
2023-05-10T09:19:27.128Z,101105.69
2023-05-10T09:22:29.886Z,101100.34
2023-05-10T09:25:34.170Z,101091.38
2023-05-10T09:28:53.212Z,101119.81
2023-05-10T09:31:56.567Z,101094.84
2023-05-10T09:34:59.335Z,101092.13
2023-05-10T09:38:06.502Z,101102.78
2023-05-10T09:41:18.396Z,101098.34
2023-05-10T09:44:22.527Z,101112.59
2023-05-10T09:47:26.010Z,101099.34
2023-05-10T09:50:29.221Z,101091.34
2023-05-10T09:53:32.122Z,101103.00
2023-05-10T09:56:35.764Z,101089.81
2023-05-10T09:59:44.974Z,101090.88
2023-05-10T10:02:50.074Z,101093.72
2023-05-10T10:05:54.207Z,101099.19
2023-05-10T10:08:57.279Z,101092.25
2023-05-10T10:12:01.045Z,101089.66
2023-05-10T10:15:07.642Z,101087.03
2023-05-10T10:18:15.524Z,101083.44
2023-05-10T10:21:19.438Z,101085.41
2023-05-10T10:24:22.185Z,101097.06
2023-05-10T10:27:31.213Z,101082.00
2023-05-10T10:30:41.155Z,101074.94
2023-05-10T10:33:58.783Z,101069.63
2023-05-10T10:37:07.472Z,101085.16
2023-05-10T10:40:26.829Z,101086.03
2023-05-10T10:43:31.378Z,101092.28
2023-05-10T10:46:36.453Z,101099.44
2023-05-10T10:49:50.670Z,101087.91
2023-05-10T10:52:54.030Z,101086.94
2023-05-10T10:56:07.844Z,101069.13
2023-05-10T10:59:10.811Z,101085.16
2023-05-10T11:02:35.079Z,101091.34
2023-05-10T11:05:40.292Z,101090.44
2023-05-10T11:08:45.932Z,101080.56
2023-05-10T11:11:55.846Z,101082.28
2023-05-10T11:14:59.693Z,101071.53
2023-05-10T11:18:19.075Z,101073.22
2023-05-10T11:21:21.965Z,101069.63
2023-05-10T11:24:28.996Z,101072.13
2023-05-10T11:27:34.078Z,101083.56
2023-05-10T11:30:37.749Z,101081.69
2023-05-10T11:33:46.834Z,101080.78
2023-05-10T11:36:54.831Z,101075.38
2023-05-10T11:39:57.622Z,101078.81
2023-05-10T11:43:01.253Z,101076.16
2023-05-10T11:46:04.152Z,101075.19
2023-05-10T11:49:09.282Z,101079.59
2023-05-10T11:52:13.037Z,101098.25
2023-05-10T11:55:15.872Z,101071.53
2023-05-10T11:58:22.283Z,101076.78
2023-05-10T12:01:26.482Z,101076.78
2023-05-10T12:04:31.296Z,101077.66
2023-05-10T12:07:34.593Z,101082.91
2023-05-10T12:10:37.597Z,101082.91
2023-05-10T12:13:42.085Z,101097.88
2023-05-10T12:16:45.865Z,101076.56
2023-05-10T12:19:50.161Z,101087.13
2023-05-10T12:22:54.795Z,101092.47
2023-05-10T12:26:04.388Z,101084.44
2023-05-10T12:29:17.863Z,101080.00
2023-05-10T12:32:20.818Z,101086.22
2023-05-10T12:35:25.328Z,101084.47
2023-05-10T12:38:30.600Z,101090.75
2023-05-10T12:41:33.420Z,101077.44
2023-05-10T12:44:36.261Z,101090.75
2023-05-10T12:47:42.181Z,101082.84
2023-05-10T12:50:48.245Z,101102.34
2023-05-10T12:53:50.989Z,101092.56
2023-05-10T12:56:53.730Z,101087.22
2023-05-10T12:59:56.823Z,101096.00
2023-05-10T13:02:59.622Z,101087.09
2023-05-10T13:06:03.765Z,101089.66
2023-05-10T13:09:06.510Z,101077.22
2023-05-10T13:12:10.283Z,101095.88
2023-05-10T13:15:13.134Z,101099.38
2023-05-10T13:18:16.210Z,101091.38
2023-05-10T13:21:20.412Z,101084.25
2023-05-10T13:24:23.247Z,101090.47
2023-05-10T13:27:25.979Z,101089.50
2023-05-10T13:30:29.758Z,101072.66
2023-05-10T13:33:32.516Z,101078.00
2023-05-10T13:36:36.724Z,101082.47
2023-05-10T13:39:39.484Z,101071.78
2023-05-10T13:42:42.314Z,101070.00
2023-05-10T13:45:45.124Z,101090.47
2023-05-10T13:48:47.929Z,101079.78
2023-05-10T13:51:52.026Z,101075.25
2023-05-10T13:54:55.983Z,101072.59
2023-05-10T13:57:58.963Z,101072.59
2023-05-10T14:01:01.705Z,101063.66
2023-05-10T14:04:04.791Z,101062.72
2023-05-10T14:07:08.932Z,101076.91
2023-05-10T14:10:12.010Z,101066.25
2023-05-10T14:13:14.723Z,101071.50
2023-05-10T14:16:17.605Z,101069.69
2023-05-10T14:19:20.472Z,101073.16
2023-05-10T14:22:24.642Z,101068.69
2023-05-10T14:25:27.941Z,101064.16
2023-05-10T14:28:30.913Z,101057.94
2023-05-10T14:31:33.799Z,101065.00
2023-05-10T14:34:36.635Z,101055.19
2023-05-10T14:37:40.759Z,101060.53
2023-05-10T14:40:43.876Z,101049.84
2023-05-10T14:43:46.904Z,101051.66
2023-05-10T14:46:50.609Z,101045.47
2023-05-10T14:49:53.393Z,101049.00
2023-05-10T14:52:57.799Z,101047.28
2023-05-10T14:56:02.095Z,101041.06
2023-05-10T14:59:05.066Z,101048.16
2023-05-10T15:02:09.207Z,101037.47
2023-05-10T15:05:12.468Z,101040.06
2023-05-10T15:08:17.097Z,101049.00
2023-05-10T15:11:19.836Z,101045.47
2023-05-10T15:14:22.693Z,101036.69
2023-05-10T15:17:25.473Z,101044.69
2023-05-10T15:20:28.361Z,101038.50
2023-05-10T15:23:33.257Z,101042.06
2023-05-10T15:26:36.160Z,101043.91
2023-05-10T15:29:38.928Z,101045.78
2023-05-10T15:32:42.001Z,101048.44
2023-05-10T15:35:44.832Z,101046.63
2023-05-10T15:38:48.965Z,101056.06
2023-05-10T15:41:51.969Z,101054.84
2023-05-10T15:44:54.745Z,101046.44
2023-05-10T15:47:57.544Z,101045.34
2023-05-10T15:51:00.408Z,101046.88
2023-05-10T15:54:08.194Z,101052.03
2023-05-10T15:57:11.760Z,101053.69
2023-05-10T16:00:15.170Z,101044.59
2023-05-10T16:03:18.021Z,101049.78
2023-05-10T16:06:20.820Z,101053.25
2023-05-10T16:09:24.924Z,101053.06
2023-05-10T16:12:27.842Z,101050.25
2023-05-10T16:15:30.757Z,101054.53
2023-05-10T16:18:33.639Z,101045.59
2023-05-10T16:21:36.510Z,101047.22
2023-05-10T16:24:40.710Z,101050.75
2023-05-10T16:27:44.387Z,101059.53
2023-05-10T16:30:47.518Z,101050.75
2023-05-10T16:33:51.076Z,101057.84
2023-05-10T16:36:53.792Z,101060.41
2023-05-10T16:39:57.952Z,101063.97
2023-05-10T16:43:01.339Z,101073.84
2023-05-10T16:46:04.139Z,101065.91
2023-05-10T16:49:08.855Z,101066.94
2023-05-10T16:52:11.657Z,101071.53
2023-05-10T16:55:16.075Z,101074.28
2023-05-10T16:58:18.993Z,101079.75
2023-05-10T17:01:23.205Z,101082.41
2023-05-10T17:04:27.177Z,101082.41
2023-05-10T17:07:30.594Z,101083.38
2023-05-10T17:10:34.766Z,101094.06
2023-05-10T17:13:38.762Z,101090.59
2023-05-10T17:16:42.358Z,101090.75
2023-05-10T17:19:46.062Z,101092.63
2023-05-10T17:22:49.585Z,101094.50
2023-05-10T17:25:53.683Z,101101.72
2023-05-10T17:28:56.957Z,101099.13
2023-05-10T17:32:00.053Z,101101.03
2023-05-10T17:35:03.705Z,101107.38
2023-05-10T17:38:06.522Z,101104.69
2023-05-10T17:41:10.633Z,101112.84
2023-05-10T17:44:13.986Z,101124.47
2023-05-10T17:47:16.736Z,101121.00
2023-05-10T17:50:19.580Z,101121.94
2023-05-10T17:53:22.384Z,101123.91
2023-05-10T17:56:27.057Z,101123.91
2023-05-10T17:59:29.844Z,101133.69
2023-05-10T18:02:32.661Z,101132.91
2023-05-10T18:05:37.573Z,101136.53
2023-05-10T18:08:40.373Z,101134.69
2023-05-10T18:11:44.547Z,101141.00
2023-05-10T18:14:47.310Z,101139.19
2023-05-10T18:17:50.719Z,101144.53
2023-05-10T18:20:56.681Z,101143.66
2023-05-10T18:23:59.408Z,101146.38
2023-05-10T18:27:03.964Z,101150.78
2023-05-10T18:30:10.066Z,101159.72
2023-05-10T18:33:13.183Z,101156.25
2023-05-10T18:36:16.070Z,101158.00
2023-05-10T18:39:19.058Z,101166.91
2023-05-10T18:42:23.347Z,101171.41
2023-05-10T18:45:26.193Z,101169.75
2023-05-10T18:48:28.985Z,101178.63
2023-05-10T18:51:31.809Z,101184.81
2023-05-10T18:54:34.900Z,101192.81
2023-05-10T18:57:41.612Z,101194.63
2023-05-10T19:00:44.641Z,101204.44
2023-05-10T19:03:47.815Z,101214.22
2023-05-10T19:06:50.624Z,101219.63
2023-05-10T19:09:53.607Z,101232.97
2023-05-10T19:12:58.060Z,101238.31
2023-05-10T19:16:05.901Z,101240.19
2023-05-10T19:19:09.598Z,101233.09
2023-05-10T19:22:12.653Z,101242.06
2023-05-10T19:25:16.816Z,101247.41
2023-05-10T19:28:21.213Z,101249.28
2023-05-10T19:31:24.618Z,101248.31
2023-05-10T19:34:28.240Z,101243.94
2023-05-10T19:37:31.695Z,101249.19
2023-05-10T19:40:34.477Z,101242.06
2023-05-10T19:43:39.593Z,101237.66
2023-05-10T19:46:42.469Z,101241.25
2023-05-10T19:49:45.377Z,101242.09
2023-05-10T19:52:49.137Z,101250.19
2023-05-10T19:55:51.988Z,101253.81
2023-05-10T19:58:56.222Z,101250.28
2023-05-10T20:01:59.267Z,101251.19
2023-05-10T20:05:02.026Z,101256.53
2023-05-10T20:08:04.875Z,101261.00
2023-05-10T20:11:07.811Z,101266.34
2023-05-10T20:14:11.961Z,101266.34
2023-05-10T20:17:14.744Z,101272.53
2023-05-10T20:20:18.506Z,101267.19
2023-05-10T20:23:21.516Z,101265.41
2023-05-10T20:26:24.581Z,101267.19
2023-05-10T20:29:28.700Z,101266.34
2023-05-10T20:32:31.626Z,101263.69
2023-05-10T20:35:34.459Z,101269.00
2023-05-10T20:38:37.482Z,101263.69
2023-05-10T20:41:40.454Z,101271.69
2023-05-10T20:44:44.590Z,101269.94
2023-05-10T20:47:47.461Z,101276.19
2023-05-10T20:50:51.708Z,101268.19
2023-05-10T20:53:54.492Z,101273.53
2023-05-10T20:56:57.304Z,101265.53
2023-05-10T21:00:01.591Z,101265.53
2023-05-10T21:03:04.878Z,101265.53
2023-05-10T21:06:07.694Z,101266.41
2023-05-10T21:09:10.616Z,101270.84
2023-05-10T21:12:14.269Z,101261.94
2023-05-10T21:15:18.674Z,101268.19
2023-05-10T21:18:21.991Z,101276.19
2023-05-10T21:21:24.840Z,101276.19
2023-05-10T21:24:27.579Z,101280.69
2023-05-10T21:27:30.561Z,101281.53
2023-05-10T21:30:34.908Z,101278.94
2023-05-10T21:33:37.680Z,101278.06
2023-05-10T21:36:40.507Z,101276.34
2023-05-10T21:39:43.548Z,101280.81
2023-05-10T21:42:49.292Z,101279.94
2023-05-10T21:45:53.560Z,101290.59
2023-05-10T21:48:57.359Z,101286.13
2023-05-10T21:52:00.129Z,101288.81
2023-05-10T21:55:03.279Z,101291.47
2023-05-10T21:58:06.168Z,101297.69
2023-05-10T22:01:10.287Z,101298.59
2023-05-10T22:04:13.159Z,101295.94
2023-05-10T22:07:16.945Z,101299.53
2023-05-10T22:10:20.225Z,101295.09
2023-05-10T22:13:23.283Z,101298.69
2023-05-10T22:16:27.606Z,101303.13
2023-05-10T22:19:30.560Z,101303.13
2023-05-10T22:22:33.548Z,101300.47
2023-05-10T22:25:36.332Z,101299.63
2023-05-10T22:28:39.415Z,101296.09
2023-05-10T22:31:43.512Z,101297.88
2023-05-10T22:34:46.294Z,101299.63
2023-05-10T22:37:49.057Z,101303.13
2023-05-10T22:40:51.792Z,101301.41
2023-05-10T22:43:54.755Z,101309.41
2023-05-10T22:46:58.911Z,101312.97
2023-05-10T22:50:03.437Z,101319.13
2023-05-10T22:53:06.661Z,101318.34
2023-05-10T22:56:09.562Z,101322.75
2023-05-10T22:59:12.465Z,101321.00
2023-05-10T23:02:18.040Z,101327.22
2023-05-10T23:05:21.176Z,101329.94
2023-05-10T23:08:23.980Z,101334.41
2023-05-10T23:11:26.871Z,101336.19
2023-05-10T23:14:29.600Z,101335.31
2023-05-10T23:17:33.761Z,101333.53
2023-05-10T23:20:36.736Z,101332.66
2023-05-10T23:23:39.516Z,101344.19
2023-05-10T23:26:43.540Z,101338.88
2023-05-10T23:29:46.265Z,101337.16
2023-05-10T23:32:50.480Z,101336.19
2023-05-10T23:35:53.302Z,101341.53
2023-05-10T23:38:56.026Z,101347.75
2023-05-10T23:41:58.798Z,101345.16
2023-05-10T23:45:01.678Z,101339.81
2023-05-10T23:48:06.081Z,101339.81
2023-05-10T23:51:08.975Z,101340.72
2023-05-10T23:54:12.267Z,101337.19
2023-05-10T23:57:15.009Z,101344.34
